Time,TemperatureF,DewpointF,PressureIn,WindDirection,WindDirectionDegrees,WindSpeedMPH,WindSpeedGustMPH,Humidity,HourlyPrecipIn,Conditions,Clouds,dailyrainin,SoftwareType,DateUTC
2013-03-09 00:05:00,41.1,37.8,29.93,South,169,2.0,2.0,88,0.21,,,0.03,Wunderground v.1.15,2013-03-09 06:05:00,
2013-03-09 00:15:00,41.2,38.2,29.93,SE,131,2.0,3.0,89,0.05,,,0.03,Wunderground v.1.15,2013-03-09 06:15:00,
2013-03-09 00:25:00,41.1,38.1,29.94,SSE,149,0.0,1.0,89,0.16,,,0.08,Wunderground v.1.15,2013-03-09 06:25:00,
2013-03-09 00:30:00,41.1,38.1,29.94,SE,128,1.0,1.0,89,0.07,,,0.08,Wunderground v.1.15,2013-03-09 06:30:00,
2013-03-09 00:40:00,41.1,38.4,29.94,SSE,155,0.0,0.0,90,0.06,,,0.09,Wunderground v.1.15,2013-03-09 06:40:00,
2013-03-09 00:45:00,41.0,38.3,29.94,SE,128,0.0,0.0,90,0.04,,,0.09,Wunderground v.1.15,2013-03-09 06:45:00,
2013-03-09 00:55:00,41.0,38.3,29.93,SE,124,0.0,0.0,90,0.00,,,0.10,Wunderground v.1.15,2013-03-09 06:55:00,
2013-03-09 01:00:00,41.0,38.6,29.93,SE,124,0.0,0.0,91,0.21,,,0.12,Wunderground v.1.15,2013-03-09 07:00:00,
2013-03-09 01:10:00,40.9,38.5,29.93,ESE,122,0.0,0.0,91,0.05,,,0.12,Wunderground v.1.15,2013-03-09 07:10:00,
2013-03-09 01:20:00,40.9,38.5,29.93,East,96,0.0,0.0,91,0.00,,,0.12,Wunderground v.1.15,2013-03-09 07:20:00,
2013-03-09 01:30:00,40.9,38.5,29.93,SE,132,0.0,0.0,91,0.00,,,0.13,Wunderground v.1.15,2013-03-09 07:30:00,
2013-03-09 01:35:00,40.9,38.8,29.92,ESE,114,0.0,0.0,92,0.00,,,0.13,Wunderground v.1.15,2013-03-09 07:35:00,
2013-03-09 01:45:00,41.0,38.9,29.92,ENE,76,0.0,0.0,92,0.00,,,0.13,Wunderground v.1.15,2013-03-09 07:45:00,
2013-03-09 02:00:00,41.1,39.0,29.91,ESE,109,0.0,1.0,92,0.00,,,0.13,Wunderground v.1.15,2013-03-09 08:00:00,
2013-03-09 02:15:00,41.3,39.2,29.91,East,91,0.0,0.0,92,0.00,,,0.13,Wunderground v.1.15,2013-03-09 08:15:00,
2013-03-09 02:20:00,41.3,39.2,29.90,ENE,75,0.0,2.0,92,0.00,,,0.13,Wunderground v.1.15,2013-03-09 08:20:00,
2013-03-09 02:26:00,41.3,39.2,29.90,East,90,0.0,0.0,92,0.00,,,0.13,Wunderground v.1.15,2013-03-09 08:26:00,
2013-03-09 02:35:00,41.4,39.3,29.89,SE,124,0.0,0.0,92,0.00,,,0.13,Wunderground v.1.15,2013-03-09 08:35:00,
2013-03-09 02:40:00,41.5,39.3,29.89,ENE,72,0.0,0.0,92,0.00,,,0.13,Wunderground v.1.15,2013-03-09 08:40:00,
2013-03-09 02:45:00,41.5,39.3,29.88,SE,142,0.0,0.0,92,0.00,,,0.13,Wunderground v.1.15,2013-03-09 08:45:00,
2013-03-09 02:52:00,41.5,39.1,29.88,East,91,0.0,0.0,91,0.00,,,0.13,Wunderground v.1.15,2013-03-09 08:52:00,
2013-03-09 03:00:00,41.6,39.2,29.87,ESE,122,0.0,0.0,91,0.00,,,0.13,Wunderground v.1.15,2013-03-09 09:00:00,
2013-03-09 03:10:00,41.7,39.3,29.86,ESE,105,0.0,1.0,91,0.00,,,0.13,Wunderground v.1.15,2013-03-09 09:10:00,
2013-03-09 03:20:00,41.8,39.4,29.86,ESE,113,0.0,0.0,91,0.00,,,0.13,Wunderground v.1.15,2013-03-09 09:20:00,
2013-03-09 03:37:00,42.0,39.8,29.84,ESE,117,1.0,1.0,92,0.00,,,0.13,Wunderground v.1.15,2013-03-09 09:37:00,
2013-03-09 03:45:00,42.1,39.7,29.84,ESE,110,1.0,1.0,91,0.00,,,0.13,Wunderground v.1.15,2013-03-09 09:45:00,
2013-03-09 03:55:00,42.2,39.8,29.84,ESE,114,0.0,1.0,91,0.00,,,0.13,Wunderground v.1.15,2013-03-09 09:55:00,
2013-03-09 04:00:00,42.3,39.9,29.85,ESE,113,1.0,1.0,91,0.00,,,0.13,Wunderground v.1.15,2013-03-09 10:00:00,
2013-03-09 04:15:00,42.4,39.7,29.83,ENE,77,1.0,1.0,90,0.00,,,0.13,Wunderground v.1.15,2013-03-09 10:15:00,
2013-03-09 04:22:00,42.4,39.7,29.83,ESE,108,0.0,1.0,90,0.00,,,0.13,Wunderground v.1.15,2013-03-09 10:22:00,
2013-03-09 04:30:00,42.4,39.7,29.83,East,91,0.0,1.0,90,0.00,,,0.13,Wunderground v.1.15,2013-03-09 10:30:00,
2013-03-09 04:35:00,42.4,39.7,29.83,East,94,1.0,1.0,90,0.00,,,0.13,Wunderground v.1.15,2013-03-09 10:35:00,
2013-03-09 04:45:00,42.4,39.7,29.82,East,89,0.0,2.0,90,0.00,,,0.14,Wunderground v.1.15,2013-03-09 10:45:00,
2013-03-09 04:52:00,42.4,39.7,29.82,ESE,120,1.0,2.0,90,0.00,,,0.14,Wunderground v.1.15,2013-03-09 10:52:00,
2013-03-09 05:00:00,42.5,39.8,29.82,East,100,1.0,1.0,90,0.00,,,0.15,Wunderground v.1.15,2013-03-09 11:00:00,
2013-03-09 05:05:00,42.5,39.8,29.82,East,96,1.0,1.0,90,0.00,,,0.15,Wunderground v.1.15,2013-03-09 11:05:00,
2013-03-09 05:15:00,42.4,39.7,29.82,ESE,105,0.0,0.0,90,0.00,,,0.15,Wunderground v.1.15,2013-03-09 11:15:00,
2013-03-09 05:20:00,42.3,39.6,29.82,ESE,109,0.0,0.0,90,0.00,,,0.15,Wunderground v.1.15,2013-03-09 11:20:00,
2013-03-09 05:30:00,42.3,39.6,29.81,East,94,1.0,2.0,90,0.00,,,0.15,Wunderground v.1.15,2013-03-09 11:30:00,
2013-03-09 05:45:00,42.6,39.9,29.80,ESE,115,1.0,1.0,90,0.00,,,0.15,Wunderground v.1.15,2013-03-09 11:45:00,
2013-03-09 05:55:00,42.7,39.7,29.79,SE,142,1.0,1.0,89,0.00,,,0.15,Wunderground v.1.15,2013-03-09 11:55:00,
2013-03-09 06:05:00,42.8,39.8,29.79,ESE,105,1.0,1.0,89,0.00,,,0.15,Wunderground v.1.15,2013-03-09 12:05:00,
2013-03-09 06:11:00,42.9,39.9,29.79,ESE,117,1.0,2.0,89,0.00,,,0.15,Wunderground v.1.15,2013-03-09 12:11:00,
2013-03-09 06:20:00,42.9,39.9,29.80,ESE,121,1.0,1.0,89,0.00,,,0.15,Wunderground v.1.15,2013-03-09 12:20:00,
2013-03-09 06:30:00,42.9,39.6,29.79,East,100,1.0,2.0,88,0.00,,,0.15,Wunderground v.1.15,2013-03-09 12:30:00,
2013-03-09 06:45:00,43.0,39.7,29.79,SE,126,2.0,2.0,88,0.00,,,0.15,Wunderground v.1.15,2013-03-09 12:45:00,
2013-03-09 06:52:00,43.0,39.7,29.79,SE,125,2.0,2.0,88,0.00,,,0.15,Wunderground v.1.15,2013-03-09 12:52:00,
2013-03-09 07:00:00,42.9,39.6,29.78,SE,128,2.0,2.0,88,0.00,,,0.15,Wunderground v.1.15,2013-03-09 13:00:00,
2013-03-09 07:11:00,42.9,39.6,29.77,ENE,76,2.0,2.0,88,0.00,,,0.15,Wunderground v.1.15,2013-03-09 13:11:00,
2013-03-09 07:20:00,42.9,39.6,29.76,SE,127,2.0,2.0,88,0.00,,,0.15,Wunderground v.1.15,2013-03-09 13:20:00,
2013-03-09 07:30:00,43.0,39.7,29.76,East,101,2.0,2.0,88,0.00,,,0.15,Wunderground v.1.15,2013-03-09 13:30:00,
2013-03-09 07:40:00,43.1,39.8,29.75,ESE,121,1.0,1.0,88,0.00,,,0.15,Wunderground v.1.15,2013-03-09 13:40:00,
2013-03-09 07:50:00,43.3,40.0,29.75,SE,132,1.0,1.0,88,0.00,,,0.15,Wunderground v.1.15,2013-03-09 13:50:00,
2013-03-09 08:00:00,43.4,39.8,29.74,ENE,68,2.0,3.0,87,0.00,,,0.15,Wunderground v.1.15,2013-03-09 14:00:00,
2013-03-09 08:05:00,43.4,39.8,29.74,East,91,2.0,3.0,87,0.00,,,0.15,Wunderground v.1.15,2013-03-09 14:05:00,
2013-03-09 08:15:00,43.7,40.1,29.73,ENE,64,1.0,2.0,87,0.00,,,0.15,Wunderground v.1.15,2013-03-09 14:15:00,
2013-03-09 08:20:00,43.8,40.2,29.73,SE,124,2.0,2.0,87,0.00,,,0.15,Wunderground v.1.15,2013-03-09 14:20:00,
2013-03-09 08:30:00,44.0,40.4,29.73,SE,135,2.0,4.0,87,0.00,,,0.15,Wunderground v.1.15,2013-03-09 14:30:00,
2013-03-09 08:40:00,44.3,40.4,29.72,SE,135,2.0,2.0,86,0.00,,,0.15,Wunderground v.1.15,2013-03-09 14:40:00,
2013-03-09 08:45:00,44.6,40.7,29.72,SE,135,2.0,3.0,86,0.00,,,0.15,Wunderground v.1.15,2013-03-09 14:45:00,
2013-03-09 08:55:00,45.0,41.1,29.72,ESE,117,2.0,3.0,86,0.00,,,0.15,Wunderground v.1.15,2013-03-09 14:55:00,
2013-03-09 09:00:00,45.3,41.1,29.72,SSE,150,2.0,4.0,85,0.00,,,0.15,Wunderground v.1.15,2013-03-09 15:00:00,
2013-03-09 09:10:00,45.5,41.3,29.72,East,94,2.0,3.0,85,0.00,,,0.15,Wunderground v.1.15,2013-03-09 15:10:00,
2013-03-09 09:20:00,45.7,41.4,29.71,ESE,113,3.0,3.0,85,0.00,,,0.15,Wunderground v.1.15,2013-03-09 15:20:00,
2013-03-09 09:30:00,45.6,41.4,29.70,ESE,113,3.0,3.0,85,0.00,,,0.15,Wunderground v.1.15,2013-03-09 15:30:00,
2013-03-09 09:35:00,45.4,41.2,29.69,ESE,103,3.0,5.0,85,0.00,,,0.15,Wunderground v.1.15,2013-03-09 15:35:00,
2013-03-09 09:45:00,45.3,41.4,29.68,ESE,121,4.0,4.0,86,0.00,,,0.15,Wunderground v.1.15,2013-03-09 15:45:00,
2013-03-09 09:55:00,45.2,41.6,29.67,East,101,3.0,4.0,87,0.00,,,0.15,Wunderground v.1.15,2013-03-09 15:55:00,
2013-03-09 10:00:00,45.3,41.7,29.68,SE,136,3.0,3.0,87,0.00,,,0.15,Wunderground v.1.15,2013-03-09 16:00:00,
2013-03-09 10:10:00,45.5,42.2,29.67,SE,136,3.0,7.0,88,0.00,,,0.15,Wunderground v.1.15,2013-03-09 16:10:00,
2013-03-09 10:20:00,45.5,42.2,29.67,SE,131,3.0,3.0,88,0.00,,,0.15,Wunderground v.1.15,2013-03-09 16:20:00,
2013-03-09 10:30:00,45.7,42.3,29.66,SSE,156,3.0,4.0,88,0.00,,,0.15,Wunderground v.1.15,2013-03-09 16:30:00,
2013-03-09 10:35:00,45.8,42.7,29.65,East,87,4.0,4.0,89,0.00,,,0.15,Wunderground v.1.15,2013-03-09 16:35:00,
2013-03-09 10:45:00,46.0,42.9,29.64,SE,136,3.0,6.0,89,0.00,,,0.15,Wunderground v.1.15,2013-03-09 16:45:00,
2013-03-09 10:55:00,46.2,43.1,29.66,ESE,123,4.0,4.0,89,0.00,,,0.15,Wunderground v.1.15,2013-03-09 16:55:00,
2013-03-09 11:00:00,46.2,43.4,29.66,SE,141,4.0,4.0,90,0.00,,,0.15,Wunderground v.1.15,2013-03-09 17:00:00,
2013-03-09 11:06:00,46.4,43.6,29.65,SE,139,3.0,6.0,90,0.00,,,0.15,Wunderground v.1.15,2013-03-09 17:06:00,
2013-03-09 11:15:00,46.9,44.1,29.65,ESE,115,3.0,3.0,90,0.00,,,0.15,Wunderground v.1.15,2013-03-09 17:15:00,
2013-03-09 11:25:00,47.5,45.0,29.68,SW,224,2.0,8.0,91,0.00,,,0.15,Wunderground v.1.15,2013-03-09 17:25:00,
2013-03-09 11:30:00,48.0,45.5,29.68,SSW,204,3.0,3.0,91,0.00,,,0.15,Wunderground v.1.15,2013-03-09 17:30:00,
2013-03-09 11:40:00,48.3,45.5,29.68,SSE,158,4.0,4.0,90,0.00,,,0.15,Wunderground v.1.15,2013-03-09 17:40:00,
2013-03-09 11:50:00,48.1,45.3,29.67,SSW,200,4.0,4.0,90,0.00,,,0.15,Wunderground v.1.15,2013-03-09 17:50:00,
2013-03-09 11:55:00,48.1,45.3,29.67,SE,141,4.0,4.0,90,0.00,,,0.15,Wunderground v.1.15,2013-03-09 17:55:00,
2013-03-09 12:05:00,48.2,45.7,29.68,West,274,4.0,4.0,91,0.00,,,0.15,Wunderground v.1.15,2013-03-09 18:05:00,
2013-03-09 12:10:00,48.2,45.7,29.68,South,183,4.0,4.0,91,0.00,,,0.15,Wunderground v.1.15,2013-03-09 18:10:00,
2013-03-09 12:20:00,48.2,45.7,29.67,SSE,153,4.0,4.0,91,0.00,,,0.15,Wunderground v.1.15,2013-03-09 18:20:00,
2013-03-09 12:30:00,48.2,45.7,29.67,SSE,166,2.0,4.0,91,0.00,,,0.15,Wunderground v.1.15,2013-03-09 18:30:00,
2013-03-09 12:35:00,48.3,45.8,29.67,SE,146,2.0,4.0,91,0.00,,,0.15,Wunderground v.1.15,2013-03-09 18:35:00,
2013-03-09 12:45:00,48.5,46.0,29.65,ESE,120,2.0,2.0,91,0.00,,,0.15,Wunderground v.1.15,2013-03-09 18:45:00,
2013-03-09 12:55:00,48.8,46.3,29.65,SSE,155,2.0,2.0,91,0.00,,,0.15,Wunderground v.1.15,2013-03-09 18:55:00,
2013-03-09 13:00:00,49.0,46.5,29.65,SE,146,2.0,2.0,91,0.00,,,0.15,Wunderground v.1.15,2013-03-09 19:00:00,
2013-03-09 13:10:00,49.4,46.9,29.64,SSE,156,2.0,2.0,91,0.00,,,0.15,Wunderground v.1.15,2013-03-09 19:10:00,
2013-03-09 13:16:00,49.4,46.9,29.64,SE,131,2.0,2.0,91,0.00,,,0.15,Wunderground v.1.15,2013-03-09 19:16:00,
2013-03-09 13:25:00,49.5,47.0,29.63,SE,136,1.0,2.0,91,0.00,,,0.15,Wunderground v.1.15,2013-03-09 19:25:00,
2013-03-09 13:31:00,49.5,47.0,29.64,SE,142,1.0,1.0,91,0.00,,,0.15,Wunderground v.1.15,2013-03-09 19:31:00,
2013-03-09 13:40:00,49.7,47.2,29.63,SE,143,2.0,2.0,91,0.00,,,0.15,Wunderground v.1.15,2013-03-09 19:40:00,
2013-03-09 13:50:00,49.9,47.4,29.63,SE,144,2.0,2.0,91,0.00,,,0.15,Wunderground v.1.15,2013-03-09 19:50:00,
2013-03-09 13:55:00,50.0,47.5,29.63,SSE,150,2.0,2.0,91,0.00,,,0.15,Wunderground v.1.15,2013-03-09 19:55:00,
2013-03-09 14:00:00,50.1,47.6,29.62,SE,143,1.0,1.0,91,0.00,,,0.15,Wunderground v.1.15,2013-03-09 20:00:00,
2013-03-09 14:10:00,50.4,47.9,29.61,SE,142,1.0,3.0,91,0.00,,,0.15,Wunderground v.1.15,2013-03-09 20:10:00,
2013-03-09 14:15:00,50.5,48.0,29.61,SSE,162,1.0,3.0,91,0.00,,,0.15,Wunderground v.1.15,2013-03-09 20:15:00,
2013-03-09 14:25:00,51.0,48.5,29.60,SE,124,2.0,2.0,91,0.00,,,0.15,Wunderground v.1.15,2013-03-09 20:25:00,
2013-03-09 14:35:00,51.5,48.7,29.61,SSE,150,2.0,3.0,90,0.00,,,0.15,Wunderground v.1.15,2013-03-09 20:35:00,
2013-03-09 14:40:00,51.7,48.6,29.61,SSE,163,2.0,3.0,89,0.00,,,0.15,Wunderground v.1.15,2013-03-09 20:40:00,
2013-03-09 14:45:00,51.8,48.7,29.61,South,176,2.0,3.0,89,0.00,,,0.15,Wunderground v.1.15,2013-03-09 20:45:00,
2013-03-09 14:55:00,51.8,48.7,29.63,SSE,158,2.0,2.0,89,0.00,,,0.15,Wunderground v.1.15,2013-03-09 20:55:00,
2013-03-09 15:01:00,51.8,48.7,29.63,SE,130,2.0,3.0,89,0.00,,,0.15,Wunderground v.1.15,2013-03-09 21:01:00,
2013-03-09 15:10:00,51.8,48.7,29.65,SE,129,3.0,3.0,89,0.00,,,0.15,Wunderground v.1.15,2013-03-09 21:10:00,
2013-03-09 15:16:00,51.8,48.7,29.65,SSE,158,2.0,3.0,89,0.00,,,0.15,Wunderground v.1.15,2013-03-09 21:16:00,
2013-03-09 15:25:00,51.7,48.6,29.65,SE,136,2.0,2.0,89,0.00,,,0.15,Wunderground v.1.15,2013-03-09 21:25:00,
2013-03-09 15:31:00,51.6,48.5,29.64,SE,129,2.0,2.0,89,0.00,,,0.15,Wunderground v.1.15,2013-03-09 21:31:00,
2013-03-09 15:42:00,51.6,48.5,29.63,East,90,1.0,1.0,89,0.00,,,0.15,Wunderground v.1.15,2013-03-09 21:42:00,
2013-03-09 15:50:00,51.8,49.0,29.61,SSE,152,0.0,0.0,90,0.00,,,0.15,Wunderground v.1.15,2013-03-09 21:50:00,
2013-03-09 16:05:00,52.1,49.3,29.60,SE,133,1.0,1.0,90,0.00,,,0.15,Wunderground v.1.15,2013-03-09 22:05:00,
2013-03-09 16:10:00,52.1,49.3,29.58,East,96,1.0,1.0,90,0.00,,,0.15,Wunderground v.1.15,2013-03-09 22:10:00,
2013-03-09 16:15:00,51.9,49.1,29.57,SE,144,1.0,1.0,90,0.00,,,0.15,Wunderground v.1.15,2013-03-09 22:15:00,
2013-03-09 16:25:00,51.4,48.6,29.56,ESE,114,2.0,2.0,90,0.00,,,0.15,Wunderground v.1.15,2013-03-09 22:25:00,
2013-03-09 16:30:00,51.2,48.7,29.56,ESE,112,2.0,5.0,91,0.00,,,0.15,Wunderground v.1.15,2013-03-09 22:30:00,
2013-03-09 16:40:00,51.5,49.0,29.57,SE,132,3.0,3.0,91,0.00,,,0.15,Wunderground v.1.15,2013-03-09 22:40:00,
2013-03-09 16:45:00,51.6,49.1,29.57,SSE,148,2.0,2.0,91,0.00,,,0.15,Wunderground v.1.15,2013-03-09 22:45:00,
2013-03-09 16:55:00,52.0,49.5,29.57,SE,136,2.0,3.0,91,0.00,,,0.15,Wunderground v.1.15,2013-03-09 22:55:00,
2013-03-09 17:05:00,52.2,49.4,29.57,SSE,154,2.0,2.0,90,0.00,,,0.15,Wunderground v.1.15,2013-03-09 23:05:00,
2013-03-09 17:15:00,52.4,49.6,29.57,SE,129,2.0,3.0,90,0.00,,,0.15,Wunderground v.1.15,2013-03-09 23:15:00,
2013-03-09 17:25:00,52.4,49.6,29.57,SSE,161,3.0,4.0,90,0.00,,,0.15,Wunderground v.1.15,2013-03-09 23:25:00,
2013-03-09 17:30:00,52.3,49.5,29.57,SE,138,2.0,2.0,90,0.00,,,0.15,Wunderground v.1.15,2013-03-09 23:30:00,
2013-03-09 17:40:00,52.2,49.4,29.58,SSE,158,1.0,1.0,90,0.00,,,0.15,Wunderground v.1.15,2013-03-09 23:40:00,
2013-03-09 17:50:00,52.2,49.4,29.59,SE,136,1.0,3.0,90,0.00,,,0.15,Wunderground v.1.15,2013-03-09 23:50:00,
2013-03-09 17:56:00,52.2,49.4,29.59,ESE,103,1.0,3.0,90,0.00,,,0.15,Wunderground v.1.15,2013-03-09 23:56:00,
2013-03-09 18:05:00,52.0,49.2,29.60,SSW,210,1.0,2.0,90,0.00,,,0.15,Wunderground v.1.15,2013-03-10 00:05:00,
2013-03-09 18:10:00,51.9,49.1,29.60,SE,132,1.0,2.0,90,0.00,,,0.15,Wunderground v.1.15,2013-03-10 00:10:00,
2013-03-09 18:15:00,51.8,49.3,29.60,SSE,148,1.0,2.0,91,0.00,,,0.15,Wunderground v.1.15,2013-03-10 00:15:00,
2013-03-09 18:26:00,51.7,49.2,29.61,SE,124,0.0,1.0,91,0.00,,,0.15,Wunderground v.1.15,2013-03-10 00:26:00,
2013-03-09 18:35:00,51.4,48.9,29.61,SE,124,0.0,0.0,91,0.00,,,0.15,Wunderground v.1.15,2013-03-10 00:35:00,
2013-03-09 18:40:00,51.3,48.8,29.62,SE,124,0.0,0.0,91,0.00,,,0.15,Wunderground v.1.15,2013-03-10 00:40:00,
2013-03-09 18:50:00,51.3,49.1,29.62,SE,124,0.0,0.0,92,0.00,,,0.15,Wunderground v.1.15,2013-03-10 00:50:00,
2013-03-09 18:55:00,51.3,49.1,29.62,SE,124,0.0,0.0,92,0.00,,,0.15,Wunderground v.1.15,2013-03-10 00:55:00,
2013-03-09 19:05:00,51.4,49.2,29.63,SE,136,0.0,0.0,92,0.00,,,0.15,Wunderground v.1.15,2013-03-10 01:05:00,
2013-03-09 19:15:00,51.3,49.1,29.64,SW,235,0.0,0.0,92,0.00,,,0.15,Wunderground v.1.15,2013-03-10 01:15:00,
2013-03-09 19:20:00,51.2,49.0,29.64,SW,235,0.0,0.0,92,0.00,,,0.15,Wunderground v.1.15,2013-03-10 01:20:00,
2013-03-09 19:30:00,51.1,48.9,29.64,SW,235,0.0,0.0,92,0.00,,,0.15,Wunderground v.1.15,2013-03-10 01:30:00,
2013-03-09 19:45:00,51.4,49.4,29.63,SSE,148,0.0,0.0,93,0.00,,,0.15,Wunderground v.1.15,2013-03-10 01:45:00,
2013-03-09 19:55:00,51.1,48.9,29.64,SSE,148,0.0,0.0,92,0.00,,,0.15,Wunderground v.1.15,2013-03-10 01:55:00,
2013-03-09 20:00:00,51.0,49.0,29.63,SE,145,0.0,1.0,93,0.00,,,0.15,Wunderground v.1.15,2013-03-10 02:00:00,
2013-03-09 20:10:00,50.9,48.9,29.63,SE,145,0.0,0.0,93,0.00,,,0.15,Wunderground v.1.15,2013-03-10 02:10:00,
2013-03-09 20:20:00,50.8,48.8,29.64,SE,136,0.0,0.0,93,0.00,,,0.15,Wunderground v.1.15,2013-03-10 02:20:00,
2013-03-09 20:30:00,50.9,48.9,29.64,SE,136,0.0,0.0,93,0.00,,,0.15,Wunderground v.1.15,2013-03-10 02:30:00,
2013-03-09 20:35:00,51.0,49.0,29.65,NE,38,0.0,1.0,93,0.00,,,0.15,Wunderground v.1.15,2013-03-10 02:35:00,
2013-03-09 20:45:00,48.0,44.9,29.67,NNW,333,3.0,3.0,89,0.00,,,0.15,Wunderground v.1.15,2013-03-10 02:45:00,
2013-03-09 20:50:00,46.4,43.3,29.67,NW,317,3.0,3.0,89,0.00,,,0.15,Wunderground v.1.15,2013-03-10 02:50:00,
2013-03-09 21:01:00,44.6,41.8,29.67,NNW,334,3.0,4.0,90,0.00,,,0.15,Wunderground v.1.15,2013-03-10 03:01:00,
2013-03-09 21:10:00,42.6,39.9,29.68,NW,314,6.0,9.0,90,0.00,,,0.15,Wunderground v.1.15,2013-03-10 03:10:00,
2013-03-09 21:20:00,41.7,39.3,29.68,NW,315,5.0,5.0,91,0.00,,,0.15,Wunderground v.1.15,2013-03-10 03:20:00,
2013-03-09 21:30:00,41.3,39.2,29.67,NNW,338,4.0,4.0,92,0.00,,,0.15,Wunderground v.1.15,2013-03-10 03:30:00,
2013-03-09 21:40:00,40.6,38.2,29.68,NNW,330,5.0,5.0,91,0.00,,,0.15,Wunderground v.1.15,2013-03-10 03:40:00,
2013-03-09 21:45:00,40.3,37.9,29.68,NW,325,6.0,7.0,91,0.00,,,0.15,Wunderground v.1.15,2013-03-10 03:45:00,
2013-03-09 21:55:00,39.9,37.8,29.69,NW,324,5.0,6.0,92,0.00,,,0.15,Wunderground v.1.15,2013-03-10 03:55:00,
2013-03-09 22:05:00,39.4,37.3,29.70,NW,322,5.0,7.0,92,0.00,,,0.16,Wunderground v.1.15,2013-03-10 04:05:00,
2013-03-09 22:11:00,39.3,37.2,29.70,NNE,28,4.0,9.0,92,0.00,,,0.16,Wunderground v.1.15,2013-03-10 04:11:00,
2013-03-09 22:20:00,38.9,36.8,29.70,North,9,5.0,5.0,92,0.00,,,0.16,Wunderground v.1.15,2013-03-10 04:20:00,
2013-03-09 22:30:00,38.7,36.9,29.71,North,359,4.0,4.0,93,0.00,,,0.16,Wunderground v.1.15,2013-03-10 04:30:00,
2013-03-09 22:40:00,38.7,36.9,29.71,NNW,328,3.0,5.0,93,0.00,,,0.17,Wunderground v.1.15,2013-03-10 04:40:00,
2013-03-09 22:50:00,38.4,36.3,29.71,NNW,342,4.0,7.0,92,0.00,,,0.17,Wunderground v.1.15,2013-03-10 04:50:00,
2013-03-09 22:55:00,38.0,35.9,29.71,NNW,342,5.0,7.0,92,0.00,,,0.17,Wunderground v.1.15,2013-03-10 04:55:00,
2013-03-09 23:01:00,37.6,35.5,29.71,NE,38,5.0,6.0,92,0.00,,,0.17,Wunderground v.1.15,2013-03-10 05:01:00,
2013-03-09 23:05:00,37.4,35.3,29.71,NE,34,4.0,6.0,92,0.00,,,0.17,Wunderground v.1.15,2013-03-10 05:05:00,
2013-03-09 23:10:00,37.2,35.1,29.71,NW,322,4.0,4.0,92,0.00,,,0.17,Wunderground v.1.15,2013-03-10 05:10:00,
2013-03-09 23:21:00,36.7,34.6,29.72,NNE,25,4.0,6.0,92,0.00,,,0.17,Wunderground v.1.15,2013-03-10 05:21:00,
2013-03-09 23:25:00,36.6,34.5,29.72,NNW,338,5.0,6.0,92,0.00,,,0.17,Wunderground v.1.15,2013-03-10 05:25:00,
2013-03-09 23:35:00,36.3,34.2,29.71,NNE,21,4.0,5.0,92,0.00,,,0.17,Wunderground v.1.15,2013-03-10 05:35:00,
2013-03-09 23:40:00,36.2,34.1,29.70,North,352,4.0,4.0,92,0.00,,,0.17,Wunderground v.1.15,2013-03-10 05:40:00,
2013-03-09 23:50:00,36.0,33.9,29.70,West,280,5.0,5.0,92,0.00,,,0.17,Wunderground v.1.15,2013-03-10 05:50:00,